^^
Datos históricos de la estación: Murcia-Puente Tocinos
Diario Informe para Mayo 16, 2019 Unidades:  Métrico    Ingés   Ambas
Diario Semanal Mensual Anual
  Máxima: Mínima: Promedio:
Temperatura: 25.1 °C 18.2 °C 21.9 °C
Punto de rocio: 16.3 °C 8.7 °C 13 °C
Humedad: 73% 42.4% 57%
Velocidad viento: 16.1km/h 0km/h 7.3km/h
Racha viento: 32.2km/h - -
Viento- - Este
Presión: 1018.4 hPa 1015.8 hPa -
Precipitación: 0.0 mm    
 
 
Tabla de datos para Mayo 16, 2019
Hora Temperatura Punto de rocio Presión Viento Velocidad viento Racha viento Humedad Intensidad lluvia(por hora) Nubes
00:04 22.1 °C 8.7 °C 1016.8 hPa NNE 5.8 km/h 9.7 km/h 42.4% 0.0 mm
00:09 21.9 °C 8.8 °C 1016.8 hPa NNE 6 km/h 11.1 km/h 43.1% 0.0 mm
00:14 21.7 °C 8.9 °C 1016.8 hPa NNE 6.5 km/h 11.3 km/h 44% 0.0 mm
00:19 21.7 °C 8.9 °C 1016.8 hPa North 5.9 km/h 8.4 km/h 44% 0.0 mm
00:24 21.6 °C 9.1 °C 1016.8 hPa NNE 4.7 km/h 12.2 km/h 45% 0.0 mm
00:29 21.4 °C 9.1 °C 1016.8 hPa NNE 5.2 km/h 13 km/h 45.6% 0.0 mm
00:34 21.2 °C 9.2 °C 1016.9 hPa NE 6.5 km/h 12.9 km/h 46.5% 0.0 mm
00:39 21 °C 9.2 °C 1016.9 hPa NE 6.6 km/h 13 km/h 47% 0.0 mm
00:44 20.8 °C 9.3 °C 1016.9 hPa NNE 6.9 km/h 12.9 km/h 47.7% 0.0 mm
00:49 20.7 °C 9.3 °C 1016.9 hPa NE 6.8 km/h 11.3 km/h 48% 0.0 mm
00:54 20.6 °C 9.3 °C 1016.9 hPa NNE 6.5 km/h 11.1 km/h 48.3% 0.0 mm
00:59 20.6 °C 9.5 °C 1016.9 hPa North 6.2 km/h 11.3 km/h 49% 0.0 mm
01:04 20.5 °C 9.4 °C 1017.1 hPa NNE 5.8 km/h 9.3 km/h 49% 0.0 mm
01:09 20.5 °C 9.7 °C 1017.1 hPa NNE 5.4 km/h 10 km/h 50% 0.0 mm
01:14 20.4 °C 9.8 °C 1017.1 hPa NNE 4.7 km/h 10.3 km/h 50.5% 0.0 mm
01:19 20.3 °C 9.9 °C 1017.1 hPa NNE 4.7 km/h 11.3 km/h 51.1% 0.0 mm
01:24 20.3 °C 10.1 °C 1017.0 hPa NE 5 km/h 8 km/h 52% 0.0 mm
01:29 20.3 °C 10.4 °C 1017.0 hPa NNE 4.9 km/h 9.3 km/h 53% 0.0 mm
01:34 20.2 °C 10.3 °C 1017.0 hPa NNE 4.7 km/h 9.7 km/h 53% 0.0 mm
01:39 20.1 °C 10.4 °C 1017.0 hPa NNE 4.7 km/h 8 km/h 53.7% 0.0 mm
01:44 20.1 °C 10.5 °C 1017.0 hPa NNE 4.7 km/h 8 km/h 54% 0.0 mm
01:49 20.1 °C 10.5 °C 1017.1 hPa NE 4.7 km/h 8 km/h 54% 0.0 mm
01:54 20 °C 10.4 °C 1017.1 hPa NE 4.6 km/h 8 km/h 54% 0.0 mm
01:59 19.9 °C 10.1 °C 1017.1 hPa NE 4.7 km/h 8 km/h 53.2% 0.0 mm
02:04 19.9 °C 9.7 °C 1017.1 hPa NE 4.6 km/h 8 km/h 52% 0.0 mm
02:09 20 °C 9.4 °C 1017.0 hPa NE 4.8 km/h 8 km/h 50.7% 0.0 mm
02:14 20.1 °C 9.4 °C 1017.0 hPa NE 5 km/h 8.4 km/h 50.2% 0.0 mm
02:19 20.1 °C 9.7 °C 1017.0 hPa NE 5 km/h 8 km/h 51% 0.0 mm
02:24 19.9 °C 9.5 °C 1016.9 hPa NNE 5 km/h 8.4 km/h 51% 0.0 mm
02:29 19.9 °C 9.4 °C 1016.9 hPa NE 4.9 km/h 8.7 km/h 51% 0.0 mm
02:34 19.8 °C 9.3 °C 1016.9 hPa NE 4.6 km/h 10 km/h 51% 0.0 mm
02:39 19.6 °C 9.2 °C 1016.7 hPa NE 4.9 km/h 9.7 km/h 50.8% 0.0 mm
02:44 19.5 °C 9.2 °C 1016.7 hPa NE 5.8 km/h 8 km/h 51.1% 0.0 mm
02:49 19.5 °C 9.1 °C 1016.7 hPa NNE 5.8 km/h 8 km/h 51.1% 0.0 mm
02:54 19.5 °C 9.5 °C 1016.6 hPa NE 4.7 km/h 6.4 km/h 52.3% 0.0 mm
02:59 19.5 °C 9.8 °C 1016.6 hPa NNE 3.6 km/h 8 km/h 53.6% 0.0 mm
03:04 19.5 °C 10 °C 1016.6 hPa NNE 3.2 km/h 8 km/h 54.4% 0.0 mm
03:09 19.4 °C 10.4 °C 1016.5 hPa NNE 3.1 km/h 7.4 km/h 55.8% 0.0 mm
03:14 19.4 °C 10.5 °C 1016.5 hPa NNE 2.9 km/h 8 km/h 56.5% 0.0 mm
03:19 19.4 °C 10.7 °C 1016.5 hPa NNE 2 km/h 3.2 km/h 57% 0.0 mm
03:24 19.5 °C 10.9 °C 1016.5 hPa Calm     57.8% 0.0 mm
03:29 19.5 °C 11.3 °C 1016.5 hPa Calm     58.9% 0.0 mm
03:34 19.5 °C 11.1 °C 1016.5 hPa Calm     58.2% 0.0 mm
03:39 19.5 °C 10.8 °C 1016.5 hPa Calm     57% 0.0 mm
03:44 19.5 °C 10.3 °C 1016.5 hPa Calm     55.4% 0.0 mm
03:49 19.5 °C 10.2 °C 1016.5 hPa Calm     55.1% 0.0 mm
03:54 19.5 °C 10.3 °C 1016.4 hPa Calm   4.7 km/h 55.1% 0.0 mm
03:59 19.6 °C 10.2 °C 1016.4 hPa Calm   4.8 km/h 54.5% 0.0 mm
04:04 19.6 °C 9.9 °C 1016.4 hPa Calm   5.8 km/h 53.5% 0.0 mm
04:09 19.6 °C 9.6 °C 1016.3 hPa Sur 1.1 km/h 6.4 km/h 52.4% 0.0 mm
04:14 19.7 °C 9.4 °C 1016.3 hPa Sur 2.9 km/h 4.8 km/h 51.4% 0.0 mm
04:19 19.7 °C 9.9 °C 1016.3 hPa Sur 1.9 km/h   53.3% 0.0 mm
04:24 19.7 °C 10.3 °C 1016.1 hPa Calm     54.8% 0.0 mm
04:29 19.7 °C 9.9 °C 1016.1 hPa Calm     53.5% 0.0 mm
04:34 19.6 °C 9.4 °C 1016.1 hPa Calm   5.8 km/h 52% 0.0 mm
04:39 19.5 °C 9.3 °C 1016.0 hPa SSE 1.1 km/h 9.5 km/h 51.6% 0.0 mm
04:44 19.3 °C 9.1 °C 1016.0 hPa SSE 3.2 km/h 9.7 km/h 51.8% 0.0 mm
04:49 19.2 °C 9.4 °C 1016.0 hPa SSE 4.1 km/h 9.7 km/h 52.9% 0.0 mm
04:54 19.1 °C 9.5 °C 1015.9 hPa Sur 5.8 km/h 9.3 km/h 53.9% 0.0 mm
04:59 19.1 °C 9.6 °C 1015.9 hPa Sur 5.5 km/h 9.7 km/h 54% 0.0 mm
05:04 19.1 °C 9.8 °C 1015.9 hPa SSO 5 km/h 9.7 km/h 55% 0.0 mm
05:09 19.2 °C 9.9 °C 1015.8 hPa Sur 4.9 km/h 8 km/h 55% 0.0 mm
05:14 19.2 °C 9.9 °C 1015.8 hPa SSO 4.7 km/h 9.3 km/h 54.9% 0.0 mm
05:19 19.2 °C 9.7 °C 1015.9 hPa Sur 5 km/h 9.7 km/h 54% 0.0 mm
05:24 19.2 °C 9.7 °C 1015.9 hPa SSO 5.8 km/h 9.7 km/h 54% 0.0 mm
05:29 19.2 °C 9.5 °C 1015.9 hPa SSO 5.5 km/h 11.1 km/h 53.6% 0.0 mm
05:34 19.2 °C 9.4 °C 1015.9 hPa SO 5 km/h 11.3 km/h 53% 0.0 mm
05:39 19.2 °C 9.2 °C 1015.9 hPa SO 5.2 km/h 11.3 km/h 52.3% 0.0 mm
05:44 19.2 °C 9.1 °C 1015.9 hPa OSO 5.8 km/h 11.3 km/h 52% 0.0 mm
05:49 19.2 °C 9.1 °C 1016.1 hPa SO 5.1 km/h 9.7 km/h 52% 0.0 mm
05:54 19.2 °C 9.1 °C 1016.1 hPa SSO 3.9 km/h 10.3 km/h 52% 0.0 mm
05:59 19.2 °C 9.1 °C 1016.1 hPa SSO 4.5 km/h 11.9 km/h 52% 0.0 mm
06:04 19.2 °C 9.4 °C 1016.3 hPa Sur 5.8 km/h 11.3 km/h 53% 0.0 mm
06:09 19.1 °C 9.3 °C 1016.3 hPa SE 5.8 km/h 10 km/h 53.2% 0.0 mm
06:14 18.8 °C 9.3 °C 1016.3 hPa SE 5.8 km/h 9.7 km/h 54% 0.0 mm
06:19 18.7 °C 9.3 °C 1016.4 hPa SE 5.4 km/h 8 km/h 54.4% 0.0 mm
06:24 18.5 °C 9.3 °C 1016.4 hPa SE 4.7 km/h 8 km/h 55% 0.0 mm
06:29 18.3 °C 9.1 °C 1016.4 hPa SE 4.4 km/h 8 km/h 55% 0.0 mm
06:34 18.2 °C 9.2 °C 1016.5 hPa SE 3.9 km/h 4.8 km/h 55.8% 0.0 mm
06:39 18.2 °C 9.3 °C 1016.5 hPa SE 3.5 km/h 4.8 km/h 56% 0.0 mm
06:44 18.2 °C 9.3 °C 1016.5 hPa SE 2.9 km/h 5.6 km/h 56% 0.0 mm
06:49 18.3 °C 9.4 °C 1016.7 hPa SE 1.9 km/h 4.8 km/h 56% 0.0 mm
06:54 18.3 °C 9.1 °C 1016.7 hPa Calm   5.6 km/h 55.1% 0.0 mm
06:59 18.4 °C 9.2 °C 1016.7 hPa OSO 0.8 km/h 5.8 km/h 55% 0.0 mm
07:04 18.4 °C 9.2 °C 1017.0 hPa Oeste 2.2 km/h 6.4 km/h 55% 0.0 mm
07:09 18.4 °C 9.2 °C 1017.0 hPa ONO 2.5 km/h 5.6 km/h 55% 0.0 mm
07:14 18.4 °C 9.2 °C 1017.0 hPa ONO 2.9 km/h 4.8 km/h 55.2% 0.0 mm
07:19 18.4 °C 9.3 °C 1017.1 hPa ONO 2.7 km/h 4.8 km/h 55.2% 0.0 mm
07:24 18.6 °C 9.4 °C 1017.1 hPa Oeste 2.2 km/h 5.8 km/h 55.2% 0.0 mm
07:29 18.7 °C 9.4 °C 1017.1 hPa ESE 2.5 km/h 7.4 km/h 55% 0.0 mm
07:34 18.7 °C 9.4 °C 1017.2 hPa ESE 2.9 km/h 8 km/h 55% 0.0 mm
07:39 18.7 °C 9.4 °C 1017.2 hPa ESE 2.9 km/h 8 km/h 55% 0.0 mm
07:44 18.8 °C 9.5 °C 1017.2 hPa ESE 2.9 km/h 6.4 km/h 55% 0.0 mm
07:49 18.9 °C 9.7 °C 1017.3 hPa ESE 2.7 km/h 5 km/h 55% 0.0 mm
07:54 19.1 °C 9.7 °C 1017.3 hPa ESE 2.2 km/h 6.4 km/h 54.7% 0.0 mm
07:59 19.2 °C 9.9 °C 1017.3 hPa ESE 2.6 km/h 8 km/h 54.9% 0.0 mm
08:04 19.3 °C 9.9 °C 1017.5 hPa SO 3.2 km/h 8 km/h 54.5% 0.0 mm
08:09 19.5 °C 9.8 °C 1017.5 hPa SO 2.9 km/h 6.4 km/h 53.4% 0.0 mm
08:14 19.7 °C 9.3 °C 1017.5 hPa OSO 2.2 km/h 8.4 km/h 51% 0.0 mm
08:19 19.8 °C 9.2 °C 1017.7 hPa OSO 2.8 km/h 8 km/h 50.3% 0.0 mm
08:24 20.1 °C 9.2 °C 1017.7 hPa SO 3.9 km/h 9.5 km/h 49.7% 0.0 mm
08:29 20.2 °C 8.9 °C 1017.7 hPa OSO 4.1 km/h 9.7 km/h 48.2% 0.0 mm
08:34 20.2 °C 8.8 °C 1017.8 hPa OSO 4.7 km/h 9.7 km/h 48% 0.0 mm
08:39 20.3 °C 8.9 °C 1017.8 hPa SO 4.2 km/h 8 km/h 48% 0.0 mm
08:44 20.4 °C 8.8 °C 1017.8 hPa Oeste 3.2 km/h 8 km/h 47.4% 0.0 mm
08:49 20.6 °C 8.9 °C 1017.9 hPa ONO 3.1 km/h 8 km/h 47% 0.0 mm
08:54 20.9 °C 9.2 °C 1017.9 hPa ONO 2.9 km/h 3.2 km/h 47% 0.0 mm
08:59 21.2 °C 9.2 °C 1017.9 hPa OSO 1.9 km/h 5.6 km/h 46.2% 0.0 mm
09:04 21.5 °C 9.4 °C 1018.0 hPa Calm   5.6 km/h 46% 0.0 mm
09:09 21.8 °C 9.7 °C 1018.0 hPa ENE 1 km/h 7.6 km/h 45.9% 0.0 mm
09:14 22 °C 9.6 °C 1018.0 hPa NNE 2.9 km/h 8 km/h 45.1% 0.0 mm
09:19 22.2 °C 9.6 °C 1018.1 hPa NNE 2.9 km/h 7.4 km/h 44.9% 0.0 mm
09:24 22.3 °C 9.5 °C 1018.1 hPa NE 2.9 km/h 8 km/h 44% 0.0 mm
09:29 22.4 °C 9.3 °C 1018.1 hPa Este 2.9 km/h 8 km/h 43.1% 0.0 mm
09:34 22.4 °C 9.3 °C 1018.3 hPa ESE 2.9 km/h 8 km/h 43.1% 0.0 mm
09:39 22.5 °C 9.3 °C 1018.3 hPa ESE 3.2 km/h 8.7 km/h 43.1% 0.0 mm
09:44 22.4 °C 9.2 °C 1018.3 hPa ESE 3.9 km/h 9.7 km/h 43% 0.0 mm
09:49 22.3 °C 9.3 °C 1018.3 hPa ENE 4.3 km/h 11.1 km/h 43.5% 0.0 mm
09:54 22.2 °C 9.7 °C 1018.3 hPa NNE 5 km/h 11.3 km/h 44.9% 0.0 mm
09:59 22.2 °C 10.7 °C 1018.3 hPa NE 5.3 km/h 11.9 km/h 48.1% 0.0 mm
10:04 22.2 °C 11.2 °C 1018.4 hPa ENE 5.8 km/h 15.6 km/h 49.9% 0.0 mm
10:09 22.1 °C 11.1 °C 1018.4 hPa NE 6.4 km/h 16.1 km/h 49.9% 0.0 mm
10:14 21.9 °C 11.3 °C 1018.4 hPa NNE 7.6 km/h 12.9 km/h 50.9% 0.0 mm
10:19 22 °C 11.4 °C 1018.4 hPa NNE 6.6 km/h 9.7 km/h 51% 0.0 mm
10:24 22.3 °C 11.6 °C 1018.3 hPa NE 5 km/h 11.1 km/h 50.7% 0.0 mm
10:29 22.5 °C 11.8 °C 1018.3 hPa NNE 5 km/h 11.3 km/h 50.8% 0.0 mm
10:34 22.7 °C 12.1 °C 1018.3 hPa NE 5 km/h 15.6 km/h 51.3% 0.0 mm
10:39 22.8 °C 12.4 °C 1018.2 hPa Este 5.7 km/h 16.1 km/h 52% 0.0 mm
10:44 22.9 °C 12.7 °C 1018.2 hPa Este 6.9 km/h 14.8 km/h 52.6% 0.0 mm
10:49 23 °C 12.9 °C 1018.3 hPa ENE 6.9 km/h 14.8 km/h 52.9% 0.0 mm
10:54 23.2 °C 13 °C 1018.3 hPa ENE 6.9 km/h 14.5 km/h 52.9% 0.0 mm
10:59 23.2 °C 13.3 °C 1018.3 hPa NE 6.8 km/h 14.8 km/h 53.6% 0.0 mm
11:04 23.2 °C 13.5 °C 1018.3 hPa NNE 6.5 km/h 14.5 km/h 54.2% 0.0 mm
11:09 23.3 °C 13.7 °C 1018.2 hPa ENE 5.8 km/h 13 km/h 54.6% 0.0 mm
11:14 23.4 °C 14 °C 1018.2 hPa NE 4.7 km/h 13 km/h 55.7% 0.0 mm
11:19 23.5 °C 14.2 °C 1018.2 hPa North 5.4 km/h 11.3 km/h 56% 0.0 mm
11:24 23.6 °C 14.3 °C 1018.2 hPa NE 6.9 km/h 11.3 km/h 56.1% 0.0 mm
11:29 23.8 °C 14.2 °C 1018.2 hPa NNE 5.9 km/h 9.3 km/h 55% 0.0 mm
11:34 24 °C 14.3 °C 1018.2 hPa Este 3.9 km/h 11.1 km/h 54.7% 0.0 mm
11:39 24.1 °C 14.1 °C 1017.9 hPa ENE 5.3 km/h 24.1 km/h 53.5% 0.0 mm
11:44 24.1 °C 14.2 °C 1017.9 hPa Este 8.4 km/h 24.1 km/h 53.8% 0.0 mm
11:49 24.2 °C 14 °C 1018.0 hPa ENE 9 km/h 22.2 km/h 53% 0.0 mm
11:54 24.2 °C 14.2 °C 1018.0 hPa Este 10.3 km/h 24.1 km/h 53.9% 0.0 mm
11:59 24.2 °C 14.9 °C 1018.0 hPa ENE 11 km/h 24.5 km/h 55.9% 0.0 mm
12:04 24.2 °C 15.2 °C 1018.0 hPa ENE 12.2 km/h 25.9 km/h 57% 0.0 mm
12:09 24.3 °C 15.4 °C 1018.0 hPa ENE 12.1 km/h 25.7 km/h 57.3% 0.0 mm
12:14 24.3 °C 15.6 °C 1018.0 hPa ENE 11.9 km/h 25.9 km/h 58.3% 0.0 mm
12:19 24.1 °C 15.7 °C 1018.1 hPa ENE 12.9 km/h 25.9 km/h 59.6% 0.0 mm
12:24 23.9 °C 15.9 °C 1018.1 hPa Este 14.8 km/h 25.7 km/h 60.8% 0.0 mm
12:29 24.1 °C 15.9 °C 1018.1 hPa NE 13.9 km/h 28.2 km/h 60.3% 0.0 mm
12:34 24 °C 15.8 °C 1018.1 hPa NE 12.2 km/h 27.4 km/h 60% 0.0 mm
12:39 24 °C 16 °C 1018.0 hPa NE 13.4 km/h 24.5 km/h 60.9% 0.0 mm
12:44 24.2 °C 16.1 °C 1018.0 hPa ENE 15.6 km/h 24.1 km/h 60.9% 0.0 mm
12:49 24.2 °C 16 °C 1018.0 hPa ENE 15.1 km/h 27.8 km/h 60.2% 0.0 mm
12:54 24.5 °C 16.1 °C 1017.8 hPa ENE 14 km/h 27.8 km/h 59.6% 0.0 mm
12:59 24.6 °C 16.1 °C 1017.8 hPa NE 14.3 km/h 31.7 km/h 59.2% 0.0 mm
13:04 24.5 °C 16.1 °C 1017.8 hPa ENE 14.8 km/h 32.2 km/h 59.7% 0.0 mm
13:09 24.2 °C 15.9 °C 1017.8 hPa NE 15.2 km/h 30.6 km/h 59.7% 0.0 mm
13:14 24.2 °C 15.8 °C 1017.8 hPa NE 16.1 km/h 30.6 km/h 59.3% 0.0 mm
13:19 24.4 °C 15.9 °C 1017.8 hPa NE 15.6 km/h 30.6 km/h 59% 0.0 mm
13:24 24.6 °C 15.8 °C 1017.8 hPa ENE 14.8 km/h 25.9 km/h 58.3% 0.0 mm
13:29 24.8 °C 16 °C 1017.8 hPa ENE 14.8 km/h 27.8 km/h 58% 0.0 mm
13:34 24.7 °C 15.9 °C 1017.9 hPa ENE 14.8 km/h 27.4 km/h 58.1% 0.0 mm
13:39 24.6 °C 15.7 °C 1017.9 hPa ENE 13.9 km/h 24.5 km/h 57.8% 0.0 mm
13:44 24.9 °C 15.7 °C 1017.9 hPa NE 12.2 km/h 27 km/h 56.5% 0.0 mm
13:49 24.9 °C 15.4 °C 1017.9 hPa ENE 12.5 km/h 27.8 km/h 55.6% 0.0 mm
13:54 24.9 °C 15.3 °C 1017.6 hPa ENE 13 km/h 30.6 km/h 55.2% 0.0 mm
13:59 24.9 °C 15.1 °C 1017.6 hPa NE 13 km/h 30.6 km/h 54.5% 0.0 mm
14:04 24.9 °C 15.2 °C 1017.7 hPa ENE 13 km/h 29.6 km/h 54.6% 0.0 mm
14:09 25.1 °C 15.2 °C 1017.7 hPa Este 13.4 km/h 29 km/h 54.2% 0.0 mm
14:14 25 °C 15.4 °C 1017.7 hPa Este 14 km/h 25.9 km/h 55.1% 0.0 mm
14:19 24.9 °C 15.5 °C 1017.7 hPa ENE 14 km/h 25.7 km/h 56% 0.0 mm
14:24 24.9 °C 15.4 °C 1017.4 hPa ENE 14 km/h 27.8 km/h 55.6% 0.0 mm
14:29 24.7 °C 15.4 °C 1017.4 hPa ENE 14.3 km/h 27.8 km/h 56% 0.0 mm
14:34 24.8 °C 15.6 °C 1017.4 hPa NE 14.8 km/h 25.9 km/h 56.5% 0.0 mm
14:39 24.8 °C 15.6 °C 1017.3 hPa Este 14.4 km/h 25.9 km/h 56.6% 0.0 mm
14:44 24.8 °C 15.7 °C 1017.3 hPa ENE 13.7 km/h 28.2 km/h 57% 0.0 mm
14:49 24.7 °C 15.6 °C 1017.3 hPa NE 13.7 km/h 27.8 km/h 57.1% 0.0 mm
14:54 24.8 °C 16 °C 1017.1 hPa ENE 13.7 km/h 28.2 km/h 58% 0.0 mm
14:59 24.5 °C 15.8 °C 1017.1 hPa ENE 14.4 km/h 28.6 km/h 58.5% 0.0 mm
15:04 24.4 °C 15.9 °C 1017.1 hPa ENE 15.6 km/h 29 km/h 59% 0.0 mm
15:09 24.4 °C 15.8 °C 1016.9 hPa ENE 14.4 km/h 24.5 km/h 58.5% 0.0 mm
15:14 24.4 °C 15.7 °C 1016.9 hPa ENE 12.2 km/h 24.1 km/h 58.2% 0.0 mm
15:19 24.3 °C 15.6 °C 1016.9 hPa ENE 12.5 km/h 24.5 km/h 58.1% 0.0 mm
15:24 24.3 °C 15.8 °C 1016.8 hPa Este 13 km/h 24.1 km/h 59.1% 0.0 mm
15:29 24.2 °C 15.9 °C 1016.8 hPa ENE 13.3 km/h 24.1 km/h 59.8% 0.0 mm
15:34 24.2 °C 15.9 °C 1017.0 hPa NE 14 km/h 26.2 km/h 59.7% 0.0 mm
15:39 24.1 °C 15.8 °C 1017.0 hPa ENE 14 km/h 25.7 km/h 59.7% 0.0 mm
15:44 24.1 °C 15.8 °C 1017.0 hPa Este 14 km/h 22.5 km/h 59.6% 0.0 mm
15:49 24.1 °C 15.7 °C 1017.4 hPa ENE 13.4 km/h 22.2 km/h 59.6% 0.0 mm
15:54 24.1 °C 15.8 °C 1017.4 hPa NE 12.2 km/h 22.5 km/h 60% 0.0 mm
15:59 24 °C 16 °C 1017.4 hPa ENE 12.2 km/h 22.5 km/h 61% 0.0 mm
16:04 23.9 °C 15.9 °C 1017.4 hPa ENE 12.2 km/h 24.1 km/h 60.9% 0.0 mm
16:09 23.8 °C 15.8 °C 1016.9 hPa ENE 12.7 km/h 24.1 km/h 61% 0.0 mm
16:14 23.8 °C 16 °C 1016.9 hPa ENE 13.7 km/h 24.5 km/h 61.9% 0.0 mm
16:19 23.7 °C 15.7 °C 1016.9 hPa ENE 13.7 km/h 25.9 km/h 61.1% 0.0 mm
16:24 23.7 °C 15.7 °C 1016.9 hPa ENE 13.7 km/h 25.7 km/h 60.8% 0.0 mm
16:29 23.8 °C 15.8 °C 1016.9 hPa NE 12.8 km/h 25.6 km/h 61% 0.0 mm
16:34 23.6 °C 15.6 °C 1016.9 hPa NE 11.1 km/h 27.8 km/h 61% 0.0 mm
16:39 23.5 °C 15.8 °C 1016.7 hPa ENE 12.7 km/h 27.4 km/h 62.3% 0.0 mm
16:44 23.4 °C 15.9 °C 1016.7 hPa ENE 15.6 km/h 29.6 km/h 62.8% 0.0 mm
16:49 23.4 °C 16 °C 1016.7 hPa ENE 15.8 km/h 29 km/h 63.4% 0.0 mm
16:54 23.4 °C 15.9 °C 1016.7 hPa NE 16.1 km/h 27.4 km/h 62.8% 0.0 mm
16:59 23.4 °C 16.1 °C 1016.7 hPa NE 14.6 km/h 24.5 km/h 63.6% 0.0 mm
17:04 23.4 °C 16.1 °C 1016.8 hPa ENE 12.2 km/h 24.1 km/h 63.6% 0.0 mm
17:09 23.4 °C 16.1 °C 1016.8 hPa ENE 12.8 km/h 26.2 km/h 63.4% 0.0 mm
17:14 23.6 °C 15.8 °C 1016.8 hPa NE 13.7 km/h 25.7 km/h 61.8% 0.0 mm
17:19 23.6 °C 15.8 °C 1016.8 hPa ENE 13.7 km/h 25.9 km/h 61.9% 0.0 mm
17:24 23.7 °C 16.1 °C 1016.6 hPa ENE 13.7 km/h 25.9 km/h 62.4% 0.0 mm
17:29 23.8 °C 16.1 °C 1016.6 hPa Este 12.8 km/h 25.7 km/h 62.1% 0.0 mm
17:34 23.8 °C 15.9 °C 1016.7 hPa NE 11.1 km/h 25.9 km/h 61.4% 0.0 mm
17:39 23.7 °C 16.1 °C 1016.7 hPa NE 11.7 km/h 25.7 km/h 62.4% 0.0 mm
17:44 23.7 °C 16.1 °C 1016.7 hPa ENE 13 km/h 22.5 km/h 62.4% 0.0 mm
17:49 23.8 °C 16 °C 1016.7 hPa NE 12.6 km/h 25.9 km/h 61.5% 0.0 mm
17:54 23.9 °C 16 °C 1016.7 hPa ENE 11.9 km/h 25.7 km/h 61.2% 0.0 mm
17:59 24 °C 16.1 °C 1016.7 hPa Este 11.6 km/h 20.9 km/h 61.2% 0.0 mm
18:04 24.1 °C 15.9 °C 1016.7 hPa NE 11.1 km/h 20.9 km/h 60.2% 0.0 mm
18:09 24.1 °C 16.1 °C 1016.5 hPa ENE 11.4 km/h 20.9 km/h 61.1% 0.0 mm
18:14 24 °C 15.8 °C 1016.5 hPa Este 11.9 km/h 20.9 km/h 60.2% 0.0 mm
18:19 23.7 °C 15.9 °C 1016.5 hPa NE 11.6 km/h 19.8 km/h 61.4% 0.0 mm
18:24 23.6 °C 15.9 °C 1016.4 hPa ENE 11.1 km/h 22.5 km/h 62% 0.0 mm
18:29 23.5 °C 15.4 °C 1016.4 hPa ENE 11.4 km/h 25.9 km/h 60.6% 0.0 mm
18:34 23.4 °C 15 °C 1016.4 hPa NE 11.9 km/h 25.7 km/h 59.3% 0.0 mm
18:39 23.4 °C 15.4 °C 1016.3 hPa NE 12.3 km/h 22.5 km/h 61% 0.0 mm
18:44 23.3 °C 15.3 °C 1016.3 hPa ENE 13 km/h 22.5 km/h 61% 0.0 mm
18:49 23.3 °C 15.5 °C 1016.6 hPa NE 12 km/h 20.9 km/h 61.7% 0.0 mm
18:54 23.2 °C 15.5 °C 1016.6 hPa ENE 10.3 km/h 20.4 km/h 61.9% 0.0 mm
18:59 23.2 °C 15.6 °C 1016.6 hPa ENE 10.2 km/h 20.9 km/h 62.3% 0.0 mm
19:04 23.4 °C 15.6 °C 1016.6 hPa ENE 10 km/h 19 km/h 61.6% 0.0 mm
19:09 23.3 °C 15.6 °C 1016.6 hPa ENE 10.1 km/h 22.2 km/h 61.8% 0.0 mm
19:14 23.2 °C 15.5 °C 1016.6 hPa NE 10.3 km/h 22.5 km/h 61.7% 0.0 mm
19:19 23.2 °C 15.4 °C 1016.6 hPa NE 10.9 km/h 20.9 km/h 61.6% 0.0 mm
19:24 23.2 °C 15.6 °C 1016.3 hPa NE 11.9 km/h 20.9 km/h 62.2% 0.0 mm
19:29 23.3 °C 15.7 °C 1016.3 hPa ENE 11.3 km/h 22.2 km/h 62.5% 0.0 mm
19:34 23.2 °C 15.8 °C 1016.3 hPa ENE 10 km/h 22.5 km/h 63% 0.0 mm
19:39 23.2 °C 15.8 °C 1016.3 hPa ENE 9.2 km/h 15.6 km/h 63.1% 0.0 mm
19:44 23.1 °C 15.9 °C 1016.3 hPa ENE 7.6 km/h 17.2 km/h 64% 0.0 mm
19:49 23 °C 15.8 °C 1016.3 hPa ENE 8.4 km/h 17.7 km/h 64% 0.0 mm
19:54 22.9 °C 15.7 °C 1016.3 hPa Este 10 km/h 17.2 km/h 64% 0.0 mm
19:59 22.8 °C 15.7 °C 1016.3 hPa ENE 10 km/h 17.7 km/h 64.3% 0.0 mm
20:04 22.8 °C 15.9 °C 1016.3 hPa NE 10 km/h 16.1 km/h 65% 0.0 mm
20:09 22.8 °C 15.9 °C 1016.2 hPa ENE 9.5 km/h 13.7 km/h 65% 0.0 mm
20:14 22.7 °C 15.8 °C 1016.2 hPa ENE 8.4 km/h 14.5 km/h 65% 0.0 mm
20:19 22.8 °C 16 °C 1016.2 hPa ENE 8.1 km/h 12.9 km/h 65.7% 0.0 mm
20:24 22.8 °C 16.1 °C 1016.1 hPa Este 7.6 km/h 17.2 km/h 66% 0.0 mm
20:29 22.7 °C 16 °C 1016.1 hPa Este 7.6 km/h 17.7 km/h 66% 0.0 mm
20:34 22.7 °C 16 °C 1016.1 hPa ENE 7.6 km/h 16.1 km/h 66% 0.0 mm
20:39 22.6 °C 16 °C 1016.1 hPa ENE 7.9 km/h 14.8 km/h 66.2% 0.0 mm
20:44 22.6 °C 16.2 °C 1016.1 hPa ENE 9.5 km/h 14.5 km/h 67% 0.0 mm
20:49 22.6 °C 16.2 °C 1016.3 hPa Este 8.7 km/h 12.9 km/h 67% 0.0 mm
20:54 22.6 °C 16.2 °C 1016.3 hPa ENE 5.8 km/h 11.1 km/h 67% 0.0 mm
20:59 22.6 °C 16 °C 1016.3 hPa ENE 5.6 km/h 11.3 km/h 66.3% 0.0 mm
21:04 22.4 °C 15.8 °C 1016.5 hPa NE 5 km/h 10 km/h 66% 0.0 mm
21:09 22.4 °C 15.6 °C 1016.5 hPa NE 5.5 km/h 10 km/h 65.4% 0.0 mm
21:14 22.3 °C 15.4 °C 1016.5 hPa NE 6.5 km/h 14 km/h 65% 0.0 mm
21:19 22.3 °C 15.5 °C 1016.7 hPa NE 6.9 km/h 14.8 km/h 65.5% 0.0 mm
21:24 22.2 °C 15.6 °C 1016.7 hPa NE 7.6 km/h 14.5 km/h 66.3% 0.0 mm
21:29 22.2 °C 15.8 °C 1016.7 hPa ENE 7.2 km/h 9.7 km/h 67% 0.0 mm
21:34 22.2 °C 15.7 °C 1016.7 hPa NE 6.5 km/h 8.4 km/h 67% 0.0 mm
21:39 22.1 °C 15.7 °C 1016.7 hPa NE 6 km/h 8.4 km/h 67% 0.0 mm
21:44 22.1 °C 15.7 °C 1016.7 hPa NE 5 km/h 8 km/h 67% 0.0 mm
21:49 22.1 °C 15.8 °C 1016.7 hPa NE 5 km/h 8.4 km/h 67.7% 0.0 mm
21:54 22 °C 15.8 °C 1016.7 hPa ENE 5 km/h 9.5 km/h 68% 0.0 mm
21:59 22 °C 15.8 °C 1016.7 hPa NE 4.9 km/h 9.7 km/h 68% 0.0 mm
22:04 21.9 °C 15.8 °C 1016.8 hPa NE 4.6 km/h 9.7 km/h 68.5% 0.0 mm
22:09 21.8 °C 15.8 °C 1016.8 hPa NE 5 km/h 9.7 km/h 69% 0.0 mm
22:14 21.7 °C 16 °C 1016.8 hPa NE 5.8 km/h 9.7 km/h 69.7% 0.0 mm
22:19 21.7 °C 16 °C 1016.9 hPa NE 5.8 km/h 8.4 km/h 70% 0.0 mm
22:24 21.6 °C 15.9 °C 1016.9 hPa NE 5.8 km/h 8.4 km/h 70% 0.0 mm
22:29 21.6 °C 16.1 °C 1016.9 hPa NE 5.4 km/h 8.4 km/h 71% 0.0 mm
22:34 21.6 °C 16.1 °C 1016.9 hPa NE 4.7 km/h 8 km/h 71% 0.0 mm
22:39 21.5 °C 16 °C 1016.9 hPa NE 4.7 km/h 8 km/h 71% 0.0 mm
22:44 21.4 °C 16.1 °C 1016.9 hPa NE 5 km/h 8 km/h 71.8% 0.0 mm
22:49 21.4 °C 16.2 °C 1017.0 hPa ENE 4.6 km/h 8 km/h 72% 0.0 mm
22:54 21.4 °C 16.2 °C 1017.0 hPa ENE 3.9 km/h 8.4 km/h 72% 0.0 mm
22:59 21.3 °C 16.2 °C 1017.0 hPa NE 3.9 km/h 8 km/h 72.4% 0.0 mm
23:04 21.3 °C 16.3 °C 1017.0 hPa ENE 3.9 km/h 8 km/h 73% 0.0 mm
23:09 21.2 °C 16.2 °C 1017.0 hPa NE 4.1 km/h 8 km/h 73% 0.0 mm
23:14 21.2 °C 16.2 °C 1017.0 hPa ENE 4.7 km/h 8 km/h 73% 0.0 mm
23:19 21.1 °C 16 °C 1017.0 hPa Este 4.4 km/h 8 km/h 72.7% 0.0 mm
23:24 21 °C 15.9 °C 1017.0 hPa ESE 3.9 km/h 8 km/h 72.7% 0.0 mm
23:29 20.9 °C 15.7 °C 1017.0 hPa ESE 3.3 km/h 8 km/h 72% 0.0 mm
23:34 20.9 °C 15.6 °C 1017.1 hPa ESE 2.2 km/h 5.8 km/h 71.7% 0.0 mm
23:39 20.9 °C 15.4 °C 1017.1 hPa ESE 2.2 km/h 6.4 km/h 70.9% 0.0 mm
23:44 20.9 °C 15.2 °C 1017.1 hPa ESE 2.2 km/h 7.4 km/h 70% 0.0 mm
23:49 20.8 °C 15.1 °C 1017.1 hPa ESE 2.8 km/h 8 km/h 69.6% 0.0 mm
23:54 20.8 °C 15.1 °C 1017.1 hPa ESE 3.9 km/h 8 km/h 70% 0.0 mm
23:59 20.8 °C 15.1 °C 1017.1 hPa ESE 3.5 km/h 8 km/h 70% 0.0 mm
Murcia-Puente Tocinos, España
Compliments of Weather Underground - 2.75 mb

La estación de MeteoMurcia.com, publica sus datos en los siguientes proyectos:

Weather Underground PWS IMURCIAP2 Meteoclimatic www.awekas.at

W3Counter
Web Analytics